createdAt,value
2022-12-22T00:00:39.183Z,30.01
2022-12-22T00:01:40.706Z,30.02
2022-12-22T00:02:39.307Z,30.02
2022-12-22T00:03:39.036Z,30.02
2022-12-22T00:54:34.088Z,30.86
2022-12-22T00:55:35.051Z,30.06
2022-12-22T00:56:35.022Z,29.97
2022-12-22T00:57:35.006Z,29.88
2022-12-22T00:58:34.979Z,29.84
2022-12-22T00:59:34.943Z,29.79
2022-12-22T01:00:34.930Z,29.74
2022-12-22T01:01:35.048Z,29.72
2022-12-22T01:02:35.157Z,29.69
2022-12-22T01:03:34.944Z,29.66
2022-12-22T01:04:34.818Z,29.65
2022-12-22T01:05:34.811Z,29.65
2022-12-22T01:06:34.812Z,29.64
2022-12-22T01:07:34.761Z,29.61
2022-12-22T01:08:34.712Z,29.62
2022-12-22T01:09:34.691Z,29.62
2022-12-22T01:10:34.682Z,29.58
2022-12-22T01:11:34.621Z,29.58
2022-12-22T01:12:34.605Z,29.56
2022-12-22T01:13:34.598Z,29.57
2022-12-22T01:14:34.542Z,29.55
2022-12-22T01:15:34.572Z,29.55
2022-12-22T01:16:34.558Z,29.55
2022-12-22T01:17:34.481Z,29.54
2022-12-22T01:18:34.452Z,29.53
2022-12-22T01:19:34.430Z,29.52
2022-12-22T01:20:34.435Z,29.51
2022-12-22T01:21:34.380Z,29.52
2022-12-22T01:22:34.360Z,29.49
2022-12-22T01:23:34.336Z,29.50
2022-12-22T01:24:34.308Z,29.51
2022-12-22T01:25:34.285Z,29.48
2022-12-22T01:26:34.295Z,29.48
2022-12-22T01:27:34.253Z,29.50
2022-12-22T01:28:34.236Z,29.48
2022-12-22T01:29:34.203Z,29.44
2022-12-22T01:30:34.274Z,29.45
2022-12-22T01:31:34.197Z,29.44
2022-12-22T01:32:34.149Z,29.42
2022-12-22T01:33:34.173Z,29.43
2022-12-22T01:34:34.129Z,29.42
2022-12-22T01:35:34.065Z,29.40
2022-12-22T01:36:34.080Z,29.40
2022-12-22T01:37:34.015Z,29.40
2022-12-22T01:38:33.989Z,29.45
2022-12-22T01:39:33.971Z,29.43
2022-12-22T01:40:33.942Z,29.40
2022-12-22T01:41:33.932Z,29.41
2022-12-22T01:42:33.922Z,29.41
2022-12-22T01:43:33.892Z,29.38
2022-12-22T01:44:33.865Z,29.37
2022-12-22T01:45:33.826Z,29.35
2022-12-22T01:46:33.942Z,29.34
2022-12-22T01:47:33.773Z,29.33
2022-12-22T01:48:33.754Z,29.34
2022-12-22T01:49:33.724Z,29.33
2022-12-22T01:50:33.706Z,29.34
2022-12-22T01:51:33.672Z,29.33
2022-12-22T01:52:33.671Z,29.32
2022-12-22T01:53:33.652Z,29.31
2022-12-22T01:54:33.621Z,29.33
2022-12-22T01:55:33.592Z,29.34
2022-12-22T01:56:33.638Z,29.30
2022-12-22T01:57:33.550Z,29.30
2022-12-22T01:58:33.557Z,29.28
2022-12-22T01:59:33.646Z,29.29
2022-12-22T02:00:33.511Z,29.28
2022-12-22T02:01:33.727Z,29.27
2022-12-22T02:02:33.736Z,29.24
2022-12-22T02:03:33.485Z,29.24
2022-12-22T02:04:33.408Z,29.24
2022-12-22T02:05:33.387Z,29.22
2022-12-22T02:06:33.392Z,29.21
2022-12-22T02:07:33.346Z,29.24
2022-12-22T02:08:33.359Z,29.23
2022-12-22T02:09:33.297Z,29.22
2022-12-22T02:10:33.273Z,29.22
2022-12-22T02:11:33.251Z,29.21
2022-12-22T02:12:33.227Z,29.22
2022-12-22T02:13:33.249Z,29.22
2022-12-22T02:14:33.224Z,29.18
2022-12-22T02:15:33.158Z,29.17
2022-12-22T02:16:33.233Z,29.17
2022-12-22T02:17:33.111Z,29.16
2022-12-22T02:18:33.136Z,29.15
2022-12-22T02:19:33.077Z,29.14
2022-12-22T02:20:33.056Z,29.13
2022-12-22T02:21:33.039Z,29.14
2022-12-22T02:22:33.022Z,29.14
2022-12-22T02:23:33.011Z,29.12
2022-12-22T02:24:32.982Z,29.14
2022-12-22T02:25:32.975Z,29.12
2022-12-22T02:26:32.951Z,29.12
2022-12-22T02:27:32.940Z,29.12
2022-12-22T02:28:32.913Z,29.09
2022-12-22T02:29:32.897Z,29.12
2022-12-22T02:30:32.897Z,29.10
2022-12-22T02:31:32.939Z,29.11
2022-12-22T02:32:32.810Z,29.10
2022-12-22T02:33:32.795Z,29.10
2022-12-22T02:34:32.781Z,29.10
2022-12-22T02:35:32.746Z,29.08
2022-12-22T02:36:32.731Z,29.07
2022-12-22T02:37:32.719Z,29.08
2022-12-22T02:38:32.709Z,29.10
2022-12-22T02:39:32.683Z,29.08
2022-12-22T02:40:40.618Z,29.07
2022-12-22T02:41:32.648Z,29.06
2022-12-22T02:42:32.617Z,29.06
2022-12-22T02:43:32.602Z,29.06
2022-12-22T02:44:32.579Z,29.04
2022-12-22T02:45:32.569Z,29.05
2022-12-22T02:46:32.607Z,29.03
2022-12-22T02:47:32.508Z,29.05
2022-12-22T02:48:32.485Z,29.07
2022-12-22T02:49:32.469Z,29.02
2022-12-22T02:50:32.444Z,29.03
2022-12-22T02:51:32.432Z,29.02
2022-12-22T02:52:32.431Z,28.98
2022-12-22T02:53:32.383Z,28.99
2022-12-22T02:54:32.380Z,29.00
2022-12-22T02:55:32.342Z,29.01
2022-12-22T02:56:32.318Z,28.98
2022-12-22T02:57:32.289Z,28.97
2022-12-22T02:58:32.269Z,28.97
2022-12-22T02:59:32.244Z,28.98
2022-12-22T03:00:32.220Z,28.98
2022-12-22T03:01:32.326Z,28.96
2022-12-22T03:02:32.539Z,28.93
2022-12-22T03:03:32.366Z,28.91
2022-12-22T03:04:32.159Z,28.93
2022-12-22T03:05:32.105Z,28.95
2022-12-22T03:06:32.091Z,28.93
2022-12-22T03:07:32.069Z,28.94
2022-12-22T03:08:32.046Z,28.91
2022-12-22T03:09:32.019Z,28.91
2022-12-22T03:10:31.992Z,28.91
2022-12-22T03:11:31.969Z,28.90
2022-12-22T03:12:31.978Z,28.90
2022-12-22T03:13:31.938Z,28.90
2022-12-22T03:14:31.906Z,28.89
2022-12-22T03:15:31.891Z,28.89
2022-12-22T03:16:31.916Z,28.90
2022-12-22T03:17:31.837Z,28.88
2022-12-22T03:18:31.857Z,28.87
2022-12-22T03:19:31.802Z,28.89
2022-12-22T03:20:31.775Z,28.87
2022-12-22T03:21:31.777Z,28.88
2022-12-22T03:22:31.753Z,28.89
2022-12-22T03:23:31.755Z,28.87
2022-12-22T03:24:31.707Z,28.89
2022-12-22T03:25:31.682Z,28.86
2022-12-22T03:26:31.668Z,28.85
2022-12-22T03:27:31.644Z,28.88
2022-12-22T03:28:31.623Z,28.86
2022-12-22T03:29:31.601Z,28.86
2022-12-22T03:30:31.581Z,28.83
2022-12-22T03:31:31.595Z,28.86
2022-12-22T03:32:31.541Z,28.84
2022-12-22T03:33:31.529Z,28.83
2022-12-22T03:34:31.533Z,28.85
2022-12-22T03:35:31.516Z,28.86
2022-12-22T03:36:31.457Z,28.87
2022-12-22T03:37:31.439Z,28.86
2022-12-22T03:38:31.423Z,28.87
2022-12-22T03:39:31.388Z,28.85
2022-12-22T03:40:31.386Z,28.83
2022-12-22T03:41:31.363Z,28.82
2022-12-22T03:42:31.322Z,28.81
2022-12-22T03:43:31.304Z,28.79
2022-12-22T03:44:31.290Z,28.76
2022-12-22T03:45:31.272Z,28.77
2022-12-22T03:46:31.529Z,28.78
2022-12-22T03:47:31.232Z,28.77
2022-12-22T03:48:31.210Z,28.77
2022-12-22T03:49:31.233Z,28.75
2022-12-22T03:50:31.204Z,28.78
2022-12-22T03:51:31.155Z,28.78
2022-12-22T03:52:31.138Z,28.76
2022-12-22T03:53:31.106Z,28.75
2022-12-22T03:54:31.088Z,28.75
2022-12-22T03:55:31.075Z,28.75
2022-12-22T03:56:31.060Z,28.76
2022-12-22T03:57:31.041Z,28.74
2022-12-22T03:58:31.037Z,28.76
2022-12-22T03:59:31.024Z,28.76
2022-12-22T04:00:30.987Z,28.75
2022-12-22T04:01:31.084Z,28.73
2022-12-22T04:02:31.124Z,28.72
2022-12-22T04:03:30.973Z,28.71
2022-12-22T04:04:30.908Z,28.70
2022-12-22T04:05:30.897Z,28.70
2022-12-22T04:06:30.899Z,28.70
2022-12-22T04:07:30.853Z,28.68
2022-12-22T04:08:30.836Z,28.69
2022-12-22T04:09:30.813Z,28.67
2022-12-22T04:10:30.802Z,28.68
2022-12-22T04:11:30.784Z,28.69
2022-12-22T04:12:30.767Z,28.67
2022-12-22T04:13:30.755Z,28.69
2022-12-22T04:14:34.244Z,28.68
2022-12-22T04:15:30.709Z,28.68
2022-12-22T04:16:30.780Z,28.67
2022-12-22T04:17:30.678Z,28.65
2022-12-22T04:18:30.655Z,28.66
2022-12-22T04:19:30.632Z,28.66
2022-12-22T04:20:30.611Z,28.67
2022-12-22T04:21:30.587Z,28.65
2022-12-22T04:22:30.588Z,28.65
2022-12-22T04:23:30.531Z,28.66
2022-12-22T04:24:30.519Z,28.66
2022-12-22T04:25:30.483Z,28.65
2022-12-22T04:26:30.527Z,28.65
2022-12-22T04:27:30.446Z,28.64
2022-12-22T04:28:30.479Z,28.63
2022-12-22T04:29:30.420Z,28.62
2022-12-22T04:30:30.379Z,28.63
2022-12-22T04:31:30.389Z,28.62
2022-12-22T04:32:30.329Z,28.62
2022-12-22T04:33:30.309Z,28.62
2022-12-22T04:34:30.297Z,28.63
2022-12-22T04:35:30.273Z,28.63
2022-12-22T04:36:30.251Z,28.63
2022-12-22T04:37:30.216Z,28.64
2022-12-22T04:38:30.221Z,28.61
2022-12-22T04:39:30.166Z,28.59
2022-12-22T04:40:30.152Z,28.62
2022-12-22T04:41:30.130Z,28.60
2022-12-22T04:42:30.163Z,28.58
2022-12-22T04:43:30.092Z,28.58
2022-12-22T04:44:30.075Z,28.60
2022-12-22T04:45:30.120Z,28.58
2022-12-22T04:46:30.123Z,28.56
2022-12-22T04:47:30.028Z,28.57
2022-12-22T04:48:30.005Z,28.58
2022-12-22T04:49:29.998Z,28.58
2022-12-22T04:50:29.987Z,28.59
2022-12-22T04:51:29.956Z,28.58
2022-12-22T04:52:29.939Z,28.57
2022-12-22T04:53:29.924Z,28.55
2022-12-22T04:54:29.931Z,28.57
2022-12-22T04:55:29.901Z,28.55
2022-12-22T04:56:29.862Z,28.55
2022-12-22T04:57:29.868Z,28.56
2022-12-22T04:58:29.829Z,28.57
2022-12-22T04:59:29.809Z,28.55
2022-12-22T05:00:29.788Z,28.55
2022-12-22T05:01:29.920Z,28.54
2022-12-22T05:02:29.952Z,28.54
2022-12-22T05:03:29.744Z,28.53
2022-12-22T05:04:29.704Z,28.52
2022-12-22T05:05:29.685Z,28.53
2022-12-22T05:06:29.664Z,28.54
2022-12-22T05:07:29.653Z,28.52
2022-12-22T05:08:29.611Z,28.52
2022-12-22T05:09:29.593Z,28.52
2022-12-22T05:10:29.602Z,28.52
2022-12-22T05:11:29.558Z,28.53
2022-12-22T05:12:29.589Z,28.52
2022-12-22T05:13:29.545Z,28.50
2022-12-22T05:14:29.506Z,28.51
2022-12-22T05:15:29.492Z,28.48
2022-12-22T05:16:29.514Z,28.50
2022-12-22T05:17:29.451Z,28.49
2022-12-22T05:18:29.439Z,28.49
2022-12-22T05:19:30.981Z,28.48
2022-12-22T05:20:29.624Z,28.47
2022-12-22T05:21:29.603Z,28.51
2022-12-22T05:22:29.600Z,28.49
2022-12-22T05:23:29.594Z,28.49
2022-12-22T05:24:29.568Z,28.49
2022-12-22T05:25:34.726Z,28.49
2022-12-22T05:26:29.556Z,28.46
2022-12-22T05:27:29.500Z,28.48
2022-12-22T05:28:29.478Z,28.45
2022-12-22T05:29:29.460Z,28.44
2022-12-22T05:30:29.512Z,28.45
2022-12-22T05:31:29.609Z,28.45
2022-12-22T05:32:29.392Z,28.46
2022-12-22T05:33:29.376Z,28.45
2022-12-22T05:34:29.349Z,28.43
2022-12-22T05:35:29.346Z,28.42
2022-12-22T05:36:29.315Z,28.41
2022-12-22T05:37:29.289Z,28.41
2022-12-22T05:38:29.261Z,28.39
2022-12-22T05:39:29.245Z,28.41
2022-12-22T05:40:29.233Z,28.45
2022-12-22T05:41:29.207Z,28.43
2022-12-22T05:42:29.222Z,28.42
2022-12-22T05:43:29.183Z,28.41
2022-12-22T05:44:29.163Z,28.40
2022-12-22T05:45:29.133Z,28.43
2022-12-22T05:46:29.146Z,28.42
2022-12-22T05:47:29.081Z,28.38
2022-12-22T05:48:35.396Z,28.38
2022-12-22T05:49:29.026Z,28.37
2022-12-22T05:50:29.002Z,28.33
2022-12-22T05:51:28.987Z,28.33
2022-12-22T05:52:28.956Z,28.33
2022-12-22T05:53:28.928Z,28.34
2022-12-22T05:54:28.902Z,28.32
2022-12-22T05:55:28.884Z,28.33
2022-12-22T05:56:28.871Z,28.32
2022-12-22T05:57:28.847Z,28.32
2022-12-22T05:58:28.859Z,28.32
2022-12-22T05:59:28.829Z,28.33
2022-12-22T06:00:28.763Z,28.31
2022-12-22T06:01:28.808Z,28.33
2022-12-22T06:02:28.933Z,28.35
2022-12-22T06:03:29.084Z,28.33
2022-12-22T06:04:28.825Z,28.35
2022-12-22T06:05:28.672Z,28.34
2022-12-22T06:06:28.665Z,28.32
2022-12-22T06:07:28.644Z,28.32
2022-12-22T06:08:28.611Z,28.29
2022-12-22T06:09:28.591Z,28.28
2022-12-22T06:10:28.576Z,28.29
2022-12-22T06:11:28.565Z,28.31
2022-12-22T06:12:28.526Z,28.27
2022-12-22T06:13:28.511Z,28.27
2022-12-22T06:14:28.505Z,28.25
2022-12-22T06:15:28.438Z,28.26
2022-12-22T06:16:28.545Z,28.26
2022-12-22T06:17:28.397Z,28.22
2022-12-22T06:18:28.776Z,28.24
2022-12-22T06:19:29.047Z,28.22
2022-12-22T06:20:28.321Z,28.16
2022-12-22T06:21:28.293Z,28.13
2022-12-22T06:22:28.753Z,28.19
2022-12-22T06:23:28.255Z,28.21
2022-12-22T06:24:28.250Z,27.99
2022-12-22T06:25:28.257Z,28.01
2022-12-22T06:26:28.172Z,28.07
2022-12-22T06:27:28.141Z,28.19
2022-12-22T06:28:28.121Z,28.24
2022-12-22T06:29:28.104Z,28.27
2022-12-22T06:30:33.188Z,28.32
2022-12-22T06:31:28.161Z,28.33
2022-12-22T06:32:28.035Z,28.32
2022-12-22T06:33:28.032Z,28.28
2022-12-22T06:34:27.991Z,28.29
2022-12-22T06:35:27.995Z,28.39
2022-12-22T06:36:27.938Z,28.52
2022-12-22T06:37:28.260Z,28.60
2022-12-22T06:38:27.907Z,28.66
2022-12-22T06:39:27.868Z,28.66
2022-12-22T06:40:27.848Z,28.71
2022-12-22T06:41:27.825Z,28.75
2022-12-22T06:42:28.260Z,28.77
2022-12-22T06:43:27.787Z,28.83
2022-12-22T06:44:27.769Z,28.85
2022-12-22T06:45:27.765Z,28.92
2022-12-22T06:46:27.834Z,28.91
2022-12-22T06:47:27.760Z,29.05
2022-12-22T06:48:27.775Z,29.81
2022-12-22T06:49:27.673Z,29.76
2022-12-22T06:50:27.663Z,29.72
2022-12-22T06:51:27.621Z,29.73
2022-12-22T06:52:27.768Z,29.72
2022-12-22T06:53:27.587Z,29.65
2022-12-22T06:54:27.554Z,29.80
2022-12-22T06:55:27.768Z,30.29
2022-12-22T06:56:27.519Z,30.44
2022-12-22T06:57:27.482Z,30.50
2022-12-22T06:58:27.454Z,30.53
2022-12-22T06:59:27.435Z,30.54
2022-12-22T07:00:27.769Z,30.53
2022-12-22T07:01:27.474Z,30.47
2022-12-22T07:02:28.029Z,30.32
2022-12-22T07:03:27.498Z,30.01
2022-12-22T07:04:27.317Z,29.81
2022-12-22T07:05:27.282Z,29.65
2022-12-22T07:06:27.265Z,29.51
2022-12-22T07:07:27.270Z,29.48
2022-12-22T07:08:27.223Z,29.44
2022-12-22T07:09:27.181Z,29.20
2022-12-22T07:10:27.271Z,29.16
2022-12-22T07:11:27.145Z,29.14
2022-12-22T07:12:27.301Z,29.06
2022-12-22T07:13:27.109Z,28.90
2022-12-22T07:14:27.076Z,28.87
2022-12-22T07:15:27.312Z,28.93
2022-12-22T07:16:27.173Z,28.90
2022-12-22T07:17:27.023Z,28.92
2022-12-22T07:18:27.315Z,28.89
2022-12-22T07:19:26.954Z,28.79
2022-12-22T07:20:26.925Z,28.71
2022-12-22T07:21:26.904Z,28.66
2022-12-22T07:22:30.443Z,28.70
2022-12-22T07:23:27.283Z,28.65
2022-12-22T07:24:26.867Z,28.56
2022-12-22T07:25:26.803Z,28.54
2022-12-22T07:26:26.777Z,28.58
2022-12-22T07:27:26.749Z,28.55
2022-12-22T07:28:26.742Z,28.50
2022-12-22T07:29:26.702Z,28.37
2022-12-22T07:30:26.667Z,28.34
2022-12-22T07:31:26.827Z,28.31
2022-12-22T07:32:26.609Z,28.30
2022-12-22T07:33:26.589Z,28.26
2022-12-22T07:34:26.583Z,28.23
2022-12-22T07:35:26.564Z,28.20
2022-12-22T07:36:26.799Z,28.14
2022-12-22T07:37:26.485Z,28.12
2022-12-22T07:38:26.459Z,28.10
2022-12-22T07:39:26.439Z,28.02
2022-12-22T07:40:26.456Z,27.99
2022-12-22T07:41:26.787Z,28.04
2022-12-22T07:42:26.378Z,28.04
2022-12-22T07:43:26.715Z,27.95
2022-12-22T07:44:26.984Z,28.00
2022-12-22T07:45:26.568Z,28.02
2022-12-22T07:46:26.774Z,28.00
2022-12-22T07:47:33.201Z,27.97
2022-12-22T07:48:26.770Z,27.96
2022-12-22T07:49:26.721Z,27.93
2022-12-22T07:50:26.862Z,27.93
2022-12-22T07:51:26.650Z,27.86
2022-12-22T07:52:26.659Z,27.84
2022-12-22T07:53:27.141Z,27.85
2022-12-22T07:54:26.427Z,27.85
2022-12-22T07:55:26.395Z,27.86
2022-12-22T07:56:26.854Z,27.83
2022-12-22T07:57:26.510Z,27.83
2022-12-22T07:58:26.774Z,27.83
2022-12-22T07:59:26.573Z,27.80
2022-12-22T08:00:26.443Z,27.79
2022-12-22T08:01:29.764Z,27.81
2022-12-22T08:02:26.911Z,27.79
2022-12-22T08:03:26.570Z,27.78
2022-12-22T08:04:26.379Z,27.76
2022-12-22T08:05:26.261Z,27.79
2022-12-22T08:06:26.410Z,27.81
2022-12-22T08:07:26.543Z,27.78
2022-12-22T08:08:26.274Z,27.78
2022-12-22T08:09:26.507Z,27.77
2022-12-22T08:10:26.337Z,27.79
2022-12-22T08:11:26.014Z,27.77
2022-12-22T08:12:25.991Z,27.78
2022-12-22T08:13:25.773Z,27.74
2022-12-22T08:14:25.674Z,27.74
2022-12-22T08:15:25.791Z,27.70
2022-12-22T08:16:25.685Z,27.72
2022-12-22T08:17:25.600Z,27.69
2022-12-22T08:18:25.572Z,27.71
2022-12-22T08:19:25.562Z,27.66
2022-12-22T08:20:25.872Z,27.64
2022-12-22T08:21:25.512Z,27.63
2022-12-22T08:22:25.523Z,27.62
2022-12-22T08:23:25.482Z,27.64
2022-12-22T08:24:25.832Z,27.62
2022-12-22T08:25:25.438Z,27.61
2022-12-22T08:26:25.801Z,27.61
2022-12-22T08:27:26.247Z,27.62
2022-12-22T08:28:25.395Z,27.60
2022-12-22T08:29:25.386Z,27.57
2022-12-22T08:30:25.428Z,27.59
2022-12-22T08:31:25.866Z,27.55
2022-12-22T08:32:25.325Z,27.56
2022-12-22T08:33:25.799Z,27.55
2022-12-22T08:34:25.281Z,27.55
2022-12-22T08:35:25.279Z,27.54
2022-12-22T08:36:25.297Z,27.50
2022-12-22T08:37:25.206Z,27.47
2022-12-22T08:38:25.330Z,27.54
2022-12-22T08:39:25.297Z,27.74
2022-12-22T08:40:25.240Z,28.14
2022-12-22T08:41:25.344Z,28.07
2022-12-22T08:42:25.108Z,28.15
2022-12-22T08:43:25.093Z,28.27
2022-12-22T08:44:25.083Z,28.17
2022-12-22T08:45:25.063Z,28.32
2022-12-22T08:46:25.060Z,28.43
2022-12-22T08:47:25.399Z,28.57
2022-12-22T08:48:24.974Z,28.68
2022-12-22T08:49:24.964Z,28.90
2022-12-22T08:50:24.959Z,28.95
2022-12-22T08:51:24.902Z,28.93
2022-12-22T08:52:25.300Z,29.36
2022-12-22T08:54:03.479Z,29.62
2022-12-22T08:54:24.864Z,29.49
2022-12-22T08:55:24.805Z,29.43
2022-12-22T08:56:24.775Z,29.36
2022-12-22T08:57:24.809Z,29.34
2022-12-22T08:58:24.728Z,29.31
2022-12-22T08:59:24.699Z,29.28
2022-12-22T09:00:24.680Z,29.26
2022-12-22T09:01:24.805Z,29.19
2022-12-22T09:02:24.863Z,29.20
2022-12-22T09:12:24.831Z,29.93
2022-12-22T10:50:22.569Z,31.08
2022-12-22T10:51:22.845Z,30.88
2022-12-22T10:52:29.463Z,31.36
2022-12-22T10:53:22.570Z,31.24
2022-12-22T10:54:22.588Z,30.96
2022-12-22T10:55:22.599Z,30.89
2022-12-22T10:56:22.887Z,30.99
2022-12-22T10:57:22.590Z,30.55
2022-12-22T10:58:22.599Z,30.37
2022-12-22T10:59:22.602Z,30.72
2022-12-22T11:00:22.612Z,30.36
2022-12-22T11:01:22.946Z,30.24
2022-12-22T11:02:23.013Z,30.31
2022-12-22T11:03:24.745Z,30.09
2022-12-22T11:04:23.148Z,30.14
2022-12-22T11:05:22.614Z,30.13
2022-12-22T11:06:22.849Z,30.27
2022-12-22T11:07:22.623Z,30.78
2022-12-22T11:08:22.640Z,30.59
2022-12-22T11:09:35.951Z,30.82
2022-12-22T11:10:22.621Z,31.08
2022-12-22T11:11:22.859Z,31.07
2022-12-22T11:12:22.849Z,30.97
2022-12-22T11:13:22.637Z,30.80
2022-12-22T11:14:22.627Z,31.13
2022-12-22T11:15:24.847Z,31.34
2022-12-22T11:16:22.717Z,31.80
2022-12-22T11:17:22.869Z,32.18
2022-12-22T11:18:22.695Z,32.32
2022-12-22T11:19:22.679Z,32.53
2022-12-22T11:20:22.700Z,32.18
2022-12-22T11:21:24.508Z,31.93
2022-12-22T11:22:22.701Z,31.71
2022-12-22T11:23:23.069Z,31.43
2022-12-22T11:24:22.857Z,31.24
2022-12-22T11:25:22.717Z,31.02
2022-12-22T11:26:22.856Z,30.82
2022-12-22T11:27:22.706Z,30.65
2022-12-22T11:28:22.702Z,30.49
2022-12-22T11:29:22.714Z,30.37
2022-12-22T11:30:22.707Z,30.22
2022-12-22T11:31:22.958Z,30.05
2022-12-22T11:32:22.695Z,29.91
2022-12-22T11:33:22.692Z,29.81
2022-12-22T11:34:22.692Z,29.69
2022-12-22T11:35:22.670Z,29.61
2022-12-22T11:36:22.872Z,29.51
2022-12-22T11:37:22.659Z,29.43
2022-12-22T11:38:22.648Z,29.34
2022-12-22T11:39:22.645Z,29.31
2022-12-22T11:40:22.631Z,29.27
2022-12-22T11:41:22.855Z,29.20
2022-12-22T11:42:22.608Z,29.19
2022-12-22T11:43:22.583Z,29.17
2022-12-22T11:44:22.578Z,29.11
2022-12-22T11:45:22.563Z,29.03
2022-12-22T11:46:22.695Z,29.04
2022-12-22T11:47:22.862Z,29.00
2022-12-22T11:48:22.536Z,28.96
2022-12-22T11:49:22.524Z,28.89
2022-12-22T11:51:01.754Z,28.85
2022-12-22T11:51:27.278Z,28.81
2022-12-22T11:52:22.861Z,28.81
2022-12-22T11:53:22.474Z,28.74
2022-12-22T11:54:22.509Z,28.73
2022-12-22T11:55:22.463Z,28.67
2022-12-22T11:56:22.866Z,28.65
2022-12-22T11:57:22.436Z,28.65
2022-12-22T11:58:22.429Z,28.61
2022-12-22T11:59:22.419Z,28.58
2022-12-22T12:00:28.366Z,28.57
2022-12-22T12:01:26.172Z,28.60
2022-12-22T12:02:22.530Z,28.51
2022-12-22T12:03:22.585Z,28.46
2022-12-22T12:04:22.451Z,28.46
2022-12-22T12:05:22.354Z,28.45
2022-12-22T12:06:22.369Z,28.44
2022-12-22T12:07:26.046Z,28.41
2022-12-22T12:08:22.316Z,28.42
2022-12-22T12:09:22.302Z,28.39
2022-12-22T12:10:22.298Z,28.44
2022-12-22T12:11:22.272Z,28.51
2022-12-22T12:12:22.259Z,28.65
2022-12-22T12:13:28.574Z,28.85
2022-12-22T12:14:22.254Z,29.32
2022-12-22T12:15:22.232Z,28.95
2022-12-22T12:16:22.357Z,29.04
2022-12-22T12:17:22.204Z,29.27
2022-12-22T12:18:22.172Z,29.58
2022-12-22T12:19:26.746Z,31.76
2022-12-22T14:22:19.236Z,33.49
2022-12-22T14:23:19.207Z,33.48
2022-12-22T14:24:19.185Z,33.47
2022-12-22T14:25:19.156Z,33.42
2022-12-22T14:26:19.132Z,33.41
2022-12-22T14:27:19.131Z,33.39
2022-12-22T14:28:19.065Z,33.35
2022-12-22T14:29:19.033Z,33.39
2022-12-22T14:30:19.036Z,33.35
2022-12-22T14:31:19.024Z,33.33
2022-12-22T14:32:19.083Z,33.32
2022-12-22T14:33:18.911Z,33.30
2022-12-22T14:34:18.881Z,33.27
2022-12-22T14:35:18.851Z,33.25
2022-12-22T14:36:18.825Z,33.23
2022-12-22T14:37:18.783Z,33.24
2022-12-22T14:38:18.767Z,33.23
2022-12-22T14:39:18.732Z,33.20
2022-12-22T14:40:18.744Z,33.21
2022-12-22T14:41:18.677Z,33.19
2022-12-22T14:42:18.654Z,33.17
2022-12-22T14:43:18.646Z,33.15
2022-12-22T14:44:18.589Z,33.16
2022-12-22T14:45:18.556Z,33.13
2022-12-22T14:46:18.593Z,33.08
2022-12-22T14:47:18.503Z,33.08
2022-12-22T14:48:18.925Z,33.10
2022-12-22T14:49:18.452Z,33.08
2022-12-22T14:50:18.443Z,33.06
2022-12-22T14:51:18.396Z,33.07
2022-12-22T14:52:18.365Z,33.07
2022-12-22T14:53:18.350Z,32.98
2022-12-22T14:54:18.341Z,32.95
2022-12-22T14:55:18.312Z,32.94
2022-12-22T14:56:18.284Z,32.98
2022-12-22T14:57:18.257Z,32.97
2022-12-22T14:58:18.235Z,32.94
2022-12-22T14:59:18.210Z,32.91
2022-12-22T15:00:18.191Z,32.92
2022-12-22T15:01:18.216Z,32.87
2022-12-22T15:02:18.377Z,32.87
2022-12-22T15:03:18.232Z,32.89
2022-12-22T15:04:18.060Z,32.86
2022-12-22T15:05:18.014Z,32.84
2022-12-22T15:06:17.985Z,32.87
2022-12-22T15:08:03.288Z,32.83
2022-12-22T15:08:17.923Z,32.83
2022-12-22T15:09:33.289Z,32.82
2022-12-22T15:10:18.135Z,32.85
2022-12-22T15:11:17.836Z,32.81
2022-12-22T15:12:17.807Z,32.76
2022-12-22T15:13:17.776Z,32.74
2022-12-22T15:14:17.777Z,32.73
2022-12-22T15:15:17.716Z,32.74
2022-12-22T15:16:17.735Z,32.69
2022-12-22T15:17:17.652Z,32.72
2022-12-22T15:18:17.735Z,32.71
2022-12-22T15:19:17.590Z,32.70
2022-12-22T15:20:17.553Z,32.66
2022-12-22T15:21:17.522Z,32.64
2022-12-22T15:22:17.482Z,32.62
2022-12-22T15:23:17.537Z,32.59
2022-12-22T15:24:17.421Z,32.60
2022-12-22T15:25:17.401Z,32.55
2022-12-22T15:26:17.363Z,32.56
2022-12-22T15:27:17.332Z,32.54
2022-12-22T15:28:17.322Z,32.49
2022-12-22T15:29:17.263Z,32.49
2022-12-22T15:30:17.234Z,32.50
2022-12-22T15:31:17.359Z,32.49
2022-12-22T15:32:17.180Z,32.48
2022-12-22T15:33:17.149Z,32.49
2022-12-22T15:34:17.147Z,32.48
2022-12-22T15:35:17.093Z,32.48
2022-12-22T15:36:17.054Z,32.49
2022-12-22T15:37:17.037Z,32.45
2022-12-22T15:38:17.013Z,32.43
2022-12-22T15:39:16.994Z,32.42
2022-12-22T15:40:16.972Z,32.39
2022-12-22T15:41:16.932Z,32.37
2022-12-22T15:42:16.911Z,32.35
2022-12-22T15:43:53.952Z,32.37
2022-12-22T15:44:16.860Z,32.39
2022-12-22T15:45:16.828Z,32.37
2022-12-22T15:46:16.899Z,32.33
2022-12-22T15:47:16.767Z,32.29
2022-12-22T15:48:16.741Z,32.29
2022-12-22T15:49:16.707Z,32.30
2022-12-22T15:50:16.717Z,32.27
2022-12-22T15:51:16.651Z,32.25
2022-12-22T15:52:16.644Z,32.21
2022-12-22T15:53:16.621Z,32.22
2022-12-22T15:54:16.583Z,32.22
2022-12-22T15:55:16.570Z,32.18
2022-12-22T15:56:17.920Z,32.18
2022-12-22T15:57:16.506Z,32.16
2022-12-22T15:58:16.493Z,32.18
2022-12-22T15:59:16.451Z,32.15
2022-12-22T16:00:16.424Z,32.20
2022-12-22T16:01:16.454Z,32.15
2022-12-22T16:02:16.592Z,32.12
2022-12-22T16:03:16.534Z,32.10
2022-12-22T16:04:16.336Z,32.08
2022-12-22T16:05:16.305Z,32.05
2022-12-22T16:06:16.313Z,32.07
2022-12-22T16:07:16.255Z,32.04
2022-12-22T16:08:18.347Z,32.03
2022-12-22T16:09:16.210Z,32.04
2022-12-22T16:10:16.173Z,32.03
2022-12-22T16:11:16.177Z,32.00
2022-12-22T16:12:16.117Z,32.00
2022-12-22T16:13:16.097Z,32.00
2022-12-22T16:14:16.081Z,31.97
2022-12-22T16:15:16.049Z,31.95
2022-12-22T16:16:16.126Z,31.96
2022-12-22T16:17:16.002Z,31.95
2022-12-22T16:18:15.987Z,31.94
2022-12-22T16:19:15.966Z,31.93
2022-12-22T16:20:15.926Z,31.93
2022-12-22T16:21:15.913Z,31.90
2022-12-22T16:22:15.933Z,31.88
2022-12-22T16:23:15.863Z,31.89
2022-12-22T16:24:15.829Z,31.88
2022-12-22T16:25:15.827Z,31.90
2022-12-22T16:26:15.791Z,31.85
2022-12-22T16:27:15.780Z,31.84
2022-12-22T16:28:15.712Z,31.85
2022-12-22T16:29:15.731Z,31.82
2022-12-22T16:30:15.668Z,31.81
2022-12-22T16:31:15.771Z,31.79
2022-12-22T16:32:17.959Z,31.78
2022-12-22T16:33:15.633Z,31.80
2022-12-22T16:34:15.547Z,31.74
2022-12-22T16:35:15.521Z,31.76
2022-12-22T16:36:15.490Z,31.74
2022-12-22T16:37:15.463Z,31.74
2022-12-22T16:38:19.037Z,31.71
2022-12-22T16:39:15.391Z,31.73
2022-12-22T16:40:15.387Z,31.71
2022-12-22T16:41:15.335Z,31.68
2022-12-22T16:45:15.222Z,31.67
2022-12-22T16:46:15.298Z,31.69
2022-12-22T16:47:15.169Z,31.67
2022-12-22T16:48:15.125Z,31.65
2022-12-22T16:49:15.090Z,31.63
2022-12-22T16:50:15.064Z,31.64
2022-12-22T16:51:15.029Z,31.61
2022-12-22T16:52:15.002Z,31.62
2022-12-22T16:53:14.963Z,31.60
2022-12-22T16:54:14.963Z,31.58
2022-12-22T16:55:14.913Z,31.58
2022-12-22T16:56:14.883Z,31.56
2022-12-22T16:57:14.833Z,31.55
2022-12-22T16:58:14.809Z,31.56
2022-12-22T16:59:14.780Z,31.54
2022-12-22T17:00:17.796Z,31.53
2022-12-22T17:01:14.790Z,31.52
2022-12-22T17:02:14.838Z,31.51
2022-12-22T17:03:15.012Z,31.50
2022-12-22T17:04:14.597Z,31.48
2022-12-22T17:05:14.561Z,31.48
2022-12-22T17:06:14.576Z,31.49
2022-12-22T17:07:14.498Z,31.47
2022-12-22T17:08:14.471Z,31.46
2022-12-22T17:09:14.428Z,31.44
2022-12-22T17:10:14.440Z,31.47
2022-12-22T17:11:14.356Z,31.43
2022-12-22T17:12:14.319Z,31.41
2022-12-22T17:13:14.293Z,31.41
2022-12-22T17:14:14.261Z,31.44
2022-12-22T17:15:14.221Z,31.41
2022-12-22T17:16:14.290Z,31.40
2022-12-22T17:17:14.155Z,31.41
2022-12-22T17:18:14.117Z,31.38
2022-12-22T17:19:14.091Z,31.36
2022-12-22T17:20:14.053Z,31.35
2022-12-22T17:21:14.015Z,31.35
2022-12-22T17:22:13.985Z,31.35
2022-12-22T17:23:13.951Z,31.35
2022-12-22T17:24:13.926Z,31.31
2022-12-22T17:25:13.892Z,31.33
2022-12-22T17:26:13.923Z,31.30
2022-12-22T17:27:13.833Z,31.29
2022-12-22T17:28:13.812Z,31.31
2022-12-22T17:29:13.786Z,31.30
2022-12-22T17:30:17.861Z,31.29
2022-12-22T17:31:13.804Z,31.31
2022-12-22T17:32:13.759Z,31.31
2022-12-22T17:33:13.691Z,31.30